createdAt,value
2023-01-04T00:00:22.559Z,10.10
2023-01-04T00:03:14.329Z,10.09
2023-01-04T00:05:46.016Z,10.11
2023-01-04T00:08:17.281Z,10.15
2023-01-04T00:10:48.451Z,10.19
2023-01-04T00:13:19.770Z,10.19
2023-01-04T00:15:51.190Z,10.20
2023-01-04T00:18:22.726Z,10.20
2023-01-04T00:20:53.952Z,10.20
2023-01-04T00:23:25.092Z,10.16
2023-01-04T00:25:56.493Z,10.12
2023-01-04T00:28:27.866Z,10.06
2023-01-04T00:30:59.263Z,10.03
2023-01-04T00:33:30.733Z,9.92
2023-01-04T00:36:06.339Z,9.87
2023-01-04T00:38:37.855Z,9.85
2023-01-04T00:41:23.074Z,9.85
2023-01-04T00:44:00.081Z,9.87
2023-01-04T00:46:31.488Z,9.88
2023-01-04T00:49:02.982Z,9.89
2023-01-04T00:51:34.962Z,9.90
2023-01-04T00:54:06.955Z,9.88
2023-01-04T00:56:38.357Z,9.88
2023-01-04T00:59:09.537Z,9.88
2023-01-04T01:01:41.007Z,9.85
2023-01-04T01:04:13.473Z,9.73
2023-01-04T01:06:44.935Z,9.63
2023-01-04T01:09:16.728Z,9.56
2023-01-04T01:11:48.018Z,9.52
2023-01-04T01:14:20.390Z,9.50
2023-01-04T01:16:55.888Z,9.39
2023-01-04T01:19:29.982Z,9.31
2023-01-04T01:22:01.488Z,9.23
2023-01-04T01:24:32.609Z,9.15
2023-01-04T01:27:03.803Z,9.17
2023-01-04T01:29:35.328Z,9.19
2023-01-04T01:32:06.900Z,9.22
2023-01-04T01:34:38.297Z,9.23
2023-01-04T01:37:09.567Z,9.24
2023-01-04T01:39:40.669Z,9.13
2023-01-04T01:42:17.587Z,9.04
2023-01-04T01:45:00.751Z,8.94
2023-01-04T01:47:34.520Z,8.91
2023-01-04T01:50:06.371Z,8.90
2023-01-04T01:52:38.125Z,8.92
2023-01-04T01:55:10.601Z,8.96
2023-01-04T01:57:41.976Z,8.99
2023-01-04T02:00:14.806Z,9.04
2023-01-04T02:02:48.936Z,9.10
2023-01-04T02:05:20.693Z,9.14
2023-01-04T02:07:52.976Z,9.13
2023-01-04T02:10:24.489Z,9.08
2023-01-04T02:12:55.890Z,8.98
2023-01-04T02:15:27.787Z,8.91
2023-01-04T02:18:00.238Z,8.93
2023-01-04T02:20:36.126Z,8.98
2023-01-04T02:23:24.733Z,9.01
2023-01-04T02:26:12.349Z,9.09
2023-01-04T02:28:48.814Z,9.17
2023-01-04T02:31:23.100Z,9.25
2023-01-04T02:33:55.868Z,9.29
2023-01-04T02:36:27.631Z,9.26
2023-01-04T02:39:06.836Z,9.22
2023-01-04T02:41:39.334Z,9.28
2023-01-04T02:44:30.374Z,9.35
2023-01-04T02:47:02.062Z,9.40
2023-01-04T02:49:51.315Z,9.43
2023-01-04T02:52:22.663Z,9.43
2023-01-04T02:54:54.638Z,9.38
2023-01-04T02:57:29.924Z,9.39
2023-01-04T03:00:08.324Z,9.43
2023-01-04T03:03:02.375Z,9.48
2023-01-04T03:05:54.076Z,9.52
2023-01-04T03:08:28.096Z,9.57
2023-01-04T03:11:00.637Z,9.61
2023-01-04T03:13:32.811Z,9.64
2023-01-04T03:16:05.500Z,9.72
2023-01-04T03:18:37.721Z,9.77
2023-01-04T03:21:09.311Z,9.79
2023-01-04T03:23:58.275Z,9.79
2023-01-04T03:26:47.902Z,9.81
2023-01-04T03:29:38.337Z,9.82
2023-01-04T03:32:28.009Z,9.80
2023-01-04T03:35:16.584Z,9.72
2023-01-04T03:37:49.251Z,9.66
2023-01-04T03:40:40.219Z,9.64
2023-01-04T03:43:31.528Z,9.65
2023-01-04T03:46:21.781Z,9.54
2023-01-04T03:48:55.006Z,9.35
2023-01-04T03:51:27.295Z,9.32
2023-01-04T03:53:59.060Z,9.38
2023-01-04T03:56:30.537Z,9.38
2023-01-04T03:59:02.068Z,9.43
2023-01-04T04:01:33.502Z,9.47
2023-01-04T04:04:22.682Z,9.52
2023-01-04T04:07:11.827Z,9.58
2023-01-04T04:09:43.219Z,9.65
2023-01-04T04:12:14.571Z,9.64
2023-01-04T04:14:45.724Z,9.63
2023-01-04T04:17:16.831Z,9.61
2023-01-04T04:19:48.022Z,9.56
2023-01-04T04:22:19.504Z,9.60
2023-01-04T04:24:50.875Z,9.68
2023-01-04T04:27:22.124Z,9.77
2023-01-04T04:29:53.167Z,9.81
2023-01-04T04:32:24.436Z,9.82
2023-01-04T04:34:55.913Z,9.77
2023-01-04T04:37:30.540Z,9.70
2023-01-04T04:40:01.782Z,9.69
2023-01-04T04:42:33.323Z,9.71
2023-01-04T04:45:05.974Z,9.71
2023-01-04T04:47:37.493Z,9.66
2023-01-04T04:50:09.772Z,9.68
2023-01-04T04:52:41.873Z,9.76
2023-01-04T04:55:13.095Z,9.83
2023-01-04T04:57:44.428Z,9.88
2023-01-04T05:00:16.872Z,9.94
2023-01-04T05:02:48.491Z,9.98
2023-01-04T05:05:19.859Z,10.03
2023-01-04T05:07:51.087Z,10.06
2023-01-04T05:10:21.797Z,10.11
2023-01-04T05:13:01.774Z,10.16
2023-01-04T05:15:35.127Z,10.20
2023-01-04T05:18:06.103Z,10.21
2023-01-04T05:20:37.058Z,10.24
2023-01-04T05:23:09.538Z,10.20
2023-01-04T05:25:40.505Z,10.16
2023-01-04T05:28:11.555Z,10.17
2023-01-04T05:30:55.824Z,10.13
2023-01-04T05:33:27.478Z,9.82
2023-01-04T05:35:58.907Z,9.62
2023-01-04T05:38:29.965Z,9.56
2023-01-04T05:41:00.923Z,9.64
2023-01-04T05:43:31.727Z,9.75
2023-01-04T05:46:02.717Z,9.87
2023-01-04T05:48:33.624Z,9.96
2023-01-04T05:51:04.751Z,10.02
2023-01-04T05:53:35.650Z,10.08
2023-01-04T05:56:08.087Z,10.12
2023-01-04T05:58:41.830Z,10.16
2023-01-04T06:01:12.954Z,10.24
2023-01-04T06:03:44.337Z,10.31
2023-01-04T06:06:15.395Z,10.36
2023-01-04T06:08:46.383Z,10.42
2023-01-04T06:11:21.300Z,10.49
2023-01-04T06:13:55.005Z,10.52
2023-01-04T06:16:26.157Z,10.58
2023-01-04T06:18:57.329Z,10.60
2023-01-04T06:21:29.057Z,10.57
2023-01-04T06:24:00.416Z,10.58
2023-01-04T06:26:32.993Z,10.58
2023-01-04T06:29:04.100Z,10.49
2023-01-04T06:31:34.989Z,10.49
2023-01-04T06:34:06.005Z,10.42
2023-01-04T06:36:36.929Z,10.35
2023-01-04T06:39:07.893Z,10.20
2023-01-04T06:41:38.902Z,10.22
2023-01-04T06:44:10.073Z,10.28
2023-01-04T06:46:41.342Z,10.25
2023-01-04T06:49:12.263Z,10.20
2023-01-04T06:51:43.329Z,10.18
2023-01-04T06:54:14.960Z,10.23
2023-01-04T06:56:46.013Z,10.30
2023-01-04T06:59:17.034Z,10.31
2023-01-04T07:01:47.873Z,10.37
2023-01-04T07:04:19.045Z,10.42
2023-01-04T07:06:50.186Z,10.46
2023-01-04T07:09:21.196Z,10.49
2023-01-04T07:11:51.964Z,10.45
2023-01-04T07:14:22.935Z,10.48
2023-01-04T07:16:54.632Z,10.54
2023-01-04T07:19:27.535Z,10.60
2023-01-04T07:21:58.983Z,10.58
2023-01-04T07:24:33.998Z,10.64
2023-01-04T07:27:09.315Z,10.68
2023-01-04T07:30:43.006Z,10.69
2023-01-04T07:33:14.584Z,10.75
2023-01-04T07:35:45.817Z,10.75
2023-01-04T07:38:16.832Z,10.75
2023-01-04T07:40:55.791Z,10.76
2023-01-04T07:43:28.568Z,10.73
2023-01-04T07:46:01.104Z,10.58
2023-01-04T07:48:31.796Z,10.40
2023-01-04T07:51:02.527Z,10.30
2023-01-04T07:53:34.918Z,10.16
2023-01-04T07:56:06.322Z,9.99
2023-01-04T07:58:40.061Z,9.87
2023-01-04T08:01:11.786Z,9.80
2023-01-04T08:03:42.628Z,9.76
2023-01-04T08:06:13.843Z,9.74
2023-01-04T08:08:45.028Z,9.72
2023-01-04T08:11:16.624Z,9.71
2023-01-04T08:13:47.580Z,9.72
2023-01-04T08:16:22.218Z,9.73
2023-01-04T08:18:56.070Z,9.73
2023-01-04T08:21:27.116Z,9.70
2023-01-04T08:23:58.054Z,9.67
2023-01-04T08:26:29.128Z,9.65
2023-01-04T08:29:00.201Z,9.64
2023-01-04T08:31:31.884Z,9.64
2023-01-04T08:34:05.111Z,9.60
2023-01-04T08:36:36.419Z,9.57
2023-01-04T08:39:07.418Z,9.57
2023-01-04T08:42:04.145Z,9.56
2023-01-04T08:44:38.775Z,9.57
2023-01-04T08:47:10.065Z,9.57
2023-01-04T08:49:41.015Z,9.57
2023-01-04T08:52:12.504Z,9.58
2023-01-04T08:54:44.441Z,9.60
2023-01-04T08:57:15.266Z,9.61
2023-01-04T08:59:46.050Z,9.60
2023-01-04T09:02:22.187Z,9.60
2023-01-04T09:04:54.261Z,9.57
2023-01-04T09:07:25.417Z,9.54
2023-01-04T09:09:59.316Z,9.49
2023-01-04T09:12:31.078Z,9.48
2023-01-04T09:15:02.186Z,9.47
2023-01-04T09:17:51.655Z,9.47
2023-01-04T09:20:27.753Z,9.46
2023-01-04T09:22:59.966Z,9.44
2023-01-04T09:25:30.891Z,9.41
2023-01-04T09:28:02.522Z,9.44
2023-01-04T09:30:33.943Z,9.48
2023-01-04T09:33:05.468Z,9.49
2023-01-04T09:35:36.896Z,9.51
2023-01-04T09:38:08.484Z,9.54
2023-01-04T09:40:42.478Z,9.55
2023-01-04T09:43:20.377Z,9.48
2023-01-04T09:45:54.511Z,9.38
2023-01-04T09:48:26.409Z,9.35
2023-01-04T09:50:57.791Z,9.34
2023-01-04T09:53:29.862Z,9.35
2023-01-04T09:56:03.501Z,9.34
2023-01-04T09:58:35.955Z,9.31
2023-01-04T10:01:09.011Z,9.30
2023-01-04T10:03:41.246Z,9.28
2023-01-04T10:06:13.338Z,9.27
2023-01-04T10:08:47.301Z,9.25
2023-01-04T10:11:30.264Z,9.28
2023-01-04T10:14:05.952Z,9.30
2023-01-04T10:17:12.169Z,9.28
2023-01-04T10:22:31.680Z,9.18
2023-01-04T10:25:05.706Z,9.12
2023-01-04T10:27:42.639Z,9.11
2023-01-04T10:30:22.179Z,9.13
2023-01-04T10:32:54.346Z,9.16
2023-01-04T10:35:27.771Z,9.17
2023-01-04T10:38:00.787Z,9.15
2023-01-04T10:40:35.838Z,9.12
2023-01-04T10:43:08.114Z,9.09
2023-01-04T10:45:40.826Z,9.00
2023-01-04T10:48:14.318Z,8.98
2023-01-04T10:50:48.408Z,8.98
2023-01-04T10:53:20.853Z,8.96
2023-01-04T10:56:25.382Z,8.92
2023-01-04T10:58:45.579Z,8.91
2023-01-04T11:01:17.992Z,8.88
2023-01-04T11:03:54.426Z,8.85
2023-01-04T11:06:26.848Z,8.83
2023-01-04T11:08:59.323Z,8.81
2023-01-04T11:11:31.463Z,8.82
2023-01-04T11:14:02.543Z,8.78
2023-01-04T11:16:33.879Z,8.72
2023-01-04T11:19:05.187Z,8.68
2023-01-04T11:21:37.105Z,8.69
2023-01-04T11:24:30.879Z,8.71
2023-01-04T11:26:59.230Z,8.70
2023-01-04T11:29:31.521Z,8.69
2023-01-04T11:32:04.147Z,8.65
2023-01-04T11:34:47.960Z,8.67
2023-01-04T11:37:30.060Z,8.67
2023-01-04T11:40:14.720Z,8.69
2023-01-04T11:42:46.119Z,8.71
2023-01-04T11:45:21.141Z,8.72
2023-01-04T11:47:53.536Z,8.75
2023-01-04T11:50:37.593Z,8.77
2023-01-04T11:53:21.776Z,8.78
2023-01-04T11:55:52.809Z,8.77
2023-01-04T11:58:28.070Z,8.77
2023-01-04T12:00:59.069Z,8.79
2023-01-04T12:03:30.579Z,8.82
2023-01-04T12:06:01.690Z,8.81
2023-01-04T12:08:33.661Z,8.82
2023-01-04T12:11:05.442Z,8.83
2023-01-04T12:13:36.468Z,8.84
2023-01-04T12:16:09.192Z,8.86
2023-01-04T12:18:41.887Z,8.89
2023-01-04T12:21:14.020Z,8.89
2023-01-04T12:23:45.003Z,8.91
2023-01-04T12:26:15.997Z,8.94
2023-01-04T12:28:47.330Z,8.90
2023-01-04T12:31:33.930Z,8.89
2023-01-04T12:34:22.197Z,8.85
2023-01-04T12:36:59.981Z,8.83
2023-01-04T12:39:43.861Z,8.82
2023-01-04T12:42:21.747Z,8.83
2023-01-04T12:45:02.270Z,8.87
2023-01-04T12:48:06.641Z,8.89
2023-01-04T12:50:59.268Z,8.93
2023-01-04T12:53:51.764Z,8.96
2023-01-04T12:56:22.601Z,9.00
2023-01-04T13:02:15.636Z,8.90
2023-01-04T13:04:46.741Z,8.88
2023-01-04T13:07:18.670Z,8.87
2023-01-04T13:09:52.512Z,8.86
2023-01-04T13:12:37.163Z,8.87
2023-01-04T13:15:12.081Z,8.90
2023-01-04T13:17:46.996Z,8.95
2023-01-04T13:20:18.885Z,8.98
2023-01-04T13:22:51.433Z,9.03
2023-01-04T13:25:22.398Z,9.05
2023-01-04T13:30:26.738Z,9.08
2023-01-04T13:33:24.946Z,9.05
2023-01-04T13:35:58.955Z,9.01
2023-01-04T13:38:29.791Z,8.98
2023-01-04T13:41:01.387Z,8.92
2023-01-04T13:43:51.764Z,8.83
2023-01-04T13:46:22.772Z,8.77
2023-01-04T13:48:55.174Z,8.72
2023-01-04T13:51:30.647Z,8.71
2023-01-04T13:54:07.239Z,8.69
2023-01-04T13:56:39.037Z,8.72
2023-01-04T13:59:09.927Z,8.71
2023-01-04T14:01:43.039Z,8.67
2023-01-04T14:04:18.485Z,8.62
2023-01-04T14:06:49.544Z,8.59
2023-01-04T14:09:21.812Z,8.55
2023-01-04T14:12:09.906Z,8.51
2023-01-04T14:14:41.874Z,8.51
2023-01-04T14:17:17.124Z,8.51
2023-01-04T14:19:49.103Z,8.47
2023-01-04T14:22:28.028Z,8.46
2023-01-04T14:25:14.819Z,8.45
2023-01-04T14:27:45.709Z,8.48
2023-01-04T14:30:26.705Z,8.50
2023-01-04T14:32:59.629Z,8.50
2023-01-04T14:35:31.273Z,8.48
2023-01-04T14:38:04.727Z,8.49
2023-01-04T14:40:35.491Z,8.51
2023-01-04T14:43:06.206Z,8.53
2023-01-04T14:45:36.925Z,8.55
2023-01-04T14:48:07.955Z,8.56
2023-01-04T14:50:38.681Z,8.56
2023-01-04T14:53:09.965Z,8.54
2023-01-04T14:55:40.801Z,8.52
2023-01-04T14:58:11.963Z,8.52
2023-01-04T15:00:43.480Z,8.51
2023-01-04T15:03:14.985Z,8.49
2023-01-04T15:05:46.638Z,8.46
2023-01-04T15:08:17.952Z,8.46
2023-01-04T15:10:53.306Z,8.45
2023-01-04T15:13:38.758Z,8.44
2023-01-04T15:16:11.722Z,8.43
2023-01-04T15:18:44.826Z,8.42
2023-01-04T15:21:15.969Z,8.43
2023-01-04T15:23:49.260Z,8.46
2023-01-04T15:26:35.443Z,8.47
2023-01-04T15:29:08.528Z,8.49
2023-01-04T15:31:51.505Z,8.52
2023-01-04T15:34:24.454Z,8.56
2023-01-04T15:37:23.392Z,8.63
2023-01-04T15:40:02.324Z,8.68
2023-01-04T15:42:51.998Z,8.75
2023-01-04T15:45:25.209Z,8.81
2023-01-04T15:48:03.384Z,8.85
2023-01-04T15:50:38.256Z,8.87
2023-01-04T15:53:09.728Z,8.89
2023-01-04T15:55:41.030Z,8.88
2023-01-04T15:58:11.888Z,8.89
2023-01-04T16:00:42.757Z,8.91
2023-01-04T16:03:13.565Z,8.93
2023-01-04T16:05:44.263Z,8.94
2023-01-04T16:08:15.059Z,8.92
2023-01-04T16:10:45.855Z,8.94
2023-01-04T16:13:16.519Z,8.94
2023-01-04T16:15:47.324Z,8.95
2023-01-04T16:18:18.005Z,8.95
2023-01-04T16:20:48.991Z,8.95
2023-01-04T16:23:19.755Z,8.97
2023-01-04T16:25:50.494Z,8.99
2023-01-04T16:28:21.288Z,8.98
2023-01-04T16:30:56.007Z,8.95
2023-01-04T16:33:27.354Z,8.94
2023-01-04T16:36:01.547Z,8.92
2023-01-04T16:38:32.389Z,8.91
2023-01-04T16:41:03.765Z,8.88
2023-01-04T16:43:35.368Z,8.83
2023-01-04T16:46:17.722Z,8.80
2023-01-04T16:51:42.757Z,8.77
2023-01-04T16:54:17.067Z,8.74
2023-01-04T16:56:50.523Z,8.70
2023-01-04T16:59:23.198Z,8.69
2023-01-04T17:01:58.156Z,8.70
2023-01-04T17:04:30.818Z,8.71
2023-01-04T17:07:03.059Z,8.69
2023-01-04T17:09:35.379Z,8.68
2023-01-04T17:17:51.331Z,8.61
2023-01-04T17:20:24.737Z,8.60
2023-01-04T17:22:57.133Z,8.60
2023-01-04T17:25:29.373Z,8.56
2023-01-04T17:28:01.760Z,8.50
2023-01-04T17:30:33.915Z,8.50
2023-01-04T17:33:07.926Z,8.50
2023-01-04T17:35:40.651Z,8.46
2023-01-04T17:38:13.072Z,8.43
2023-01-04T17:40:47.337Z,8.42
2023-01-04T17:43:20.520Z,8.41
2023-01-04T17:45:52.800Z,8.43
2023-01-04T17:48:25.086Z,8.44
2023-01-04T17:50:57.587Z,8.44
2023-01-04T17:53:28.291Z,8.44
2023-01-04T17:56:04.366Z,8.41
2023-01-04T17:58:37.417Z,8.42
2023-01-04T18:01:14.537Z,8.40
2023-01-04T18:03:48.304Z,8.39
2023-01-04T18:06:26.012Z,8.38
2023-01-04T18:08:59.336Z,8.37
2023-01-04T18:11:32.018Z,8.35
2023-01-04T18:14:05.853Z,8.33
2023-01-04T18:16:57.028Z,8.25
2023-01-04T18:19:31.514Z,8.23
2023-01-04T18:22:03.919Z,8.20
2023-01-04T18:24:37.756Z,8.20
2023-01-04T18:27:26.962Z,8.18
2023-01-04T18:29:59.300Z,8.16
2023-01-04T18:32:31.523Z,8.13
2023-01-04T18:35:05.651Z,8.11
2023-01-04T18:37:38.312Z,8.09
2023-01-04T18:40:10.439Z,8.08
2023-01-04T18:42:43.156Z,8.04
2023-01-04T18:45:14.065Z,8.03
2023-01-04T18:47:47.640Z,7.99
2023-01-04T18:50:20.486Z,7.98
2023-01-04T18:52:52.877Z,7.98
2023-01-04T18:55:25.292Z,7.97
2023-01-04T18:57:57.668Z,7.94
2023-01-04T19:00:30.054Z,7.89
2023-01-04T19:03:02.459Z,7.86
2023-01-04T19:05:34.844Z,7.83
2023-01-04T19:08:07.919Z,7.78
2023-01-04T19:10:40.230Z,7.76
2023-01-04T19:13:12.560Z,7.73
2023-01-04T19:15:47.833Z,7.67
2023-01-04T19:18:20.215Z,7.61
2023-01-04T19:20:52.532Z,7.61
2023-01-04T19:23:24.942Z,7.60
2023-01-04T19:25:57.273Z,7.57
2023-01-04T19:28:29.669Z,7.56
2023-01-04T19:31:05.475Z,7.55
2023-01-04T19:33:39.269Z,7.54
2023-01-04T19:36:14.208Z,7.54
2023-01-04T19:38:46.644Z,7.52
2023-01-04T19:41:21.287Z,7.48
2023-01-04T19:43:53.931Z,7.44
2023-01-04T19:46:26.619Z,7.42
2023-01-04T19:49:00.241Z,7.40
2023-01-04T19:51:31.016Z,7.41
2023-01-04T19:54:03.336Z,7.38
2023-01-04T19:56:35.618Z,7.39
2023-01-04T19:59:07.963Z,7.38
2023-01-04T20:01:40.446Z,7.36
2023-01-04T20:04:13.957Z,7.32
2023-01-04T20:06:46.250Z,7.27
2023-01-04T20:09:24.784Z,7.24
2023-01-04T20:11:57.606Z,7.25
2023-01-04T20:14:30.396Z,7.25
2023-01-04T20:17:02.709Z,7.24
2023-01-04T20:19:35.088Z,7.25
2023-01-04T20:22:07.656Z,7.23
2023-01-04T20:24:40.165Z,7.26
2023-01-04T20:27:12.676Z,7.30
2023-01-04T20:29:45.168Z,7.34
2023-01-04T20:32:17.690Z,7.33
2023-01-04T20:34:50.169Z,7.32
2023-01-04T20:37:22.652Z,7.28
2023-01-04T20:39:55.004Z,7.22
2023-01-04T20:42:45.162Z,7.14
2023-01-04T20:45:17.644Z,7.13
2023-01-04T20:47:50.113Z,7.20
2023-01-04T20:50:22.608Z,7.26
2023-01-04T20:52:55.085Z,7.28
2023-01-04T20:55:27.517Z,7.31
2023-01-04T20:57:59.912Z,7.35
2023-01-04T21:00:34.695Z,7.39
2023-01-04T21:03:08.513Z,7.42
2023-01-04T21:05:43.079Z,7.36
2023-01-04T21:08:16.051Z,7.35
2023-01-04T21:10:48.460Z,7.33
2023-01-04T21:13:20.958Z,7.33
2023-01-04T21:15:53.628Z,7.34
2023-01-04T21:18:24.952Z,7.31
2023-01-04T21:20:57.313Z,7.27
2023-01-04T21:23:29.856Z,7.25
2023-01-04T21:26:02.255Z,7.25
2023-01-04T21:28:34.867Z,7.30
2023-01-04T21:31:12.174Z,7.34
2023-01-04T21:33:46.961Z,7.37
2023-01-04T21:36:20.805Z,7.38
2023-01-04T21:38:53.934Z,7.43
2023-01-04T21:41:27.351Z,7.46
2023-01-04T21:44:00.462Z,7.47
2023-01-04T21:46:33.373Z,7.44
2023-01-04T21:49:06.630Z,7.45
2023-01-04T21:51:39.345Z,7.47
2023-01-04T21:54:10.132Z,7.41
2023-01-04T21:56:42.699Z,7.34
2023-01-04T21:59:15.164Z,7.31
2023-01-04T22:01:47.692Z,7.27
2023-01-04T22:04:20.801Z,7.25
2023-01-04T22:06:53.372Z,7.24
2023-01-04T22:09:26.032Z,7.23
2023-01-04T22:11:58.424Z,7.21
2023-01-04T22:14:30.955Z,7.16
2023-01-04T22:17:06.113Z,7.14
2023-01-04T22:19:38.556Z,7.13
2023-01-04T22:22:11.307Z,7.15
2023-01-04T22:24:43.897Z,7.16
2023-01-04T22:27:16.609Z,7.13
2023-01-04T22:29:49.143Z,7.11
2023-01-04T22:32:23.385Z,7.10
2023-01-04T22:34:56.395Z,7.04
2023-01-04T22:37:28.831Z,7.01
2023-01-04T22:40:01.306Z,6.94
2023-01-04T22:42:33.837Z,6.85
2023-01-04T22:45:13.052Z,6.81
2023-01-04T22:47:46.015Z,6.72
2023-01-04T22:50:19.024Z,6.66
2023-01-04T22:53:00.498Z,6.60
2023-01-04T22:55:59.867Z,6.55
2023-01-04T22:58:26.342Z,6.53
2023-01-04T23:00:58.870Z,6.51
2023-01-04T23:03:31.884Z,6.56
2023-01-04T23:06:07.766Z,6.49
2023-01-04T23:08:41.007Z,6.44
2023-01-04T23:11:15.278Z,6.42
2023-01-04T23:13:48.202Z,6.36
2023-01-04T23:16:23.658Z,6.31
2023-01-04T23:18:58.860Z,6.33
2023-01-04T23:21:31.321Z,6.30
2023-01-04T23:24:02.455Z,6.34
2023-01-04T23:26:33.737Z,6.35
2023-01-04T23:29:04.557Z,6.28
2023-01-04T23:31:36.092Z,6.23
2023-01-04T23:34:07.740Z,6.20
2023-01-04T23:36:40.074Z,6.15
2023-01-04T23:39:14.113Z,6.16
2023-01-04T23:41:48.193Z,6.13
2023-01-04T23:44:20.491Z,6.06
2023-01-04T23:46:54.573Z,5.99
2023-01-04T23:49:26.458Z,5.92
2023-01-04T23:51:59.095Z,5.86
2023-01-04T23:54:30.336Z,5.71
2023-01-04T23:57:02.089Z,5.60
2023-01-04T23:59:33.743Z,5.53
